Time;durP1;ratioP1;P1;durP2;ratioP2;P2;SDS_P1;SDS_P2;PMS_P1;PMS_P2;Temp;Humidity;BMP_temperature;BMP_pressure;BME280_temperature;BME280_humidity;BME280_pressure;Samples;Min_cycle;Max_cycle;Signal;HPM_P1;HPM_P2
2022/01/05 00:02:24;;;;;;;7.13;1.63;;;4.10;99.90;;;;;;5047024;28;20025;-43
2022/01/05 00:04:50;;;;;;;6.38;1.70;;;4.10;99.90;;;;;;5047106;28;20040;-44
2022/01/05 00:07:16;;;;;;;5.63;1.55;;;4.00;99.90;;;;;;5043968;28;20025;-43
2022/01/05 00:09:42;;;;;;;5.35;1.60;;;4.00;99.90;;;;;;5046302;28;20037;-43
2022/01/05 00:12:08;;;;;;;7.70;1.85;;;4.00;99.90;;;;;;5047202;28;20036;-42
2022/01/05 00:14:34;;;;;;;5.15;1.70;;;4.00;99.90;;;;;;5047847;28;20037;-43
2022/01/05 00:17:02;;;;;;;4.95;1.40;;;3.90;99.90;;;;;;5046136;28;20025;-43
2022/01/05 00:19:32;;;;;;;8.25;1.60;;;3.90;99.90;;;;;;5046775;28;20029;-42
2022/01/05 00:21:57;;;;;;;6.47;1.83;;;3.90;99.90;;;;;;5047427;28;20035;-43
2022/01/05 00:24:23;;;;;;;5.45;1.20;;;3.90;99.90;;;;;;5046162;28;20024;-43
2022/01/05 00:26:48;;;;;;;4.65;1.80;;;3.80;99.90;;;;;;5047162;28;20059;-42
2022/01/05 00:29:14;;;;;;;5.13;1.35;;;3.80;99.90;;;;;;5047669;28;20040;-44
2022/01/05 00:31:39;;;;;;;3.13;1.50;;;3.80;99.90;;;;;;5045570;28;20155;-42
2022/01/05 00:34:05;;;;;;;5.60;1.52;;;3.80;99.90;;;;;;5046793;28;20028;-43
2022/01/05 00:36:30;;;;;;;6.93;1.23;;;3.80;99.90;;;;;;5047403;28;20142;-43
2022/01/05 00:38:56;;;;;;;7.80;1.52;;;3.80;99.90;;;;;;5046156;28;20074;-42
2022/01/05 00:41:21;;;;;;;4.70;1.58;;;3.80;99.90;;;;;;5047396;28;20461;-43
2022/01/05 00:43:47;;;;;;;5.13;1.45;;;3.70;99.90;;;;;;5045890;28;20029;-43
2022/01/05 00:46:12;;;;;;;5.53;1.77;;;3.70;99.90;;;;;;5046208;28;20017;-44
2022/01/05 00:48:38;;;;;;;6.10;1.73;;;3.70;99.90;;;;;;5047039;28;20044;-43
2022/01/05 00:51:06;;;;;;;6.43;1.52;;;3.70;99.90;;;;;;5046272;28;20092;-44
2022/01/05 00:53:34;;;;;;;7.32;2.13;;;3.70;99.90;;;;;;5046053;28;20025;-43
2022/01/05 00:55:59;;;;;;;4.70;1.50;;;3.60;99.90;;;;;;5046646;28;20032;-44
2022/01/05 00:58:25;;;;;;;9.77;2.00;;;3.70;99.90;;;;;;5046329;28;20021;-42
2022/01/05 01:00:50;;;;;;;5.00;1.40;;;3.70;99.90;;;;;;5045922;28;20025;-44
2022/01/05 01:03:16;;;;;;;12.02;1.83;;;3.80;99.90;;;;;;5047375;28;20021;-44
2022/01/05 01:05:42;;;;;;;11.10;1.60;;;3.80;99.90;;;;;;5046725;28;20902;-44
2022/01/05 01:08:07;;;;;;;9.30;1.92;;;3.90;99.90;;;;;;5045371;28;20523;-44
2022/01/05 01:10:33;;;;;;;4.10;1.55;;;3.90;99.90;;;;;;5046660;28;20032;-44
2022/01/05 01:12:58;;;;;;;6.28;1.27;;;3.90;99.90;;;;;;5045971;28;20048;-43
2022/01/05 01:15:24;;;;;;;4.82;1.33;;;3.90;99.90;;;;;;5046358;28;20028;-43
2022/01/05 01:17:50;;;;;;;5.93;1.50;;;3.80;99.90;;;;;;5046638;28;20033;-42
2022/01/05 01:20:16;;;;;;;5.45;1.52;;;3.70;99.90;;;;;;5045712;28;20032;-41
2022/01/05 01:22:42;;;;;;;6.63;1.52;;;3.70;99.90;;;;;;5050098;28;20032;-42
2022/01/05 01:25:08;;;;;;;5.55;1.63;;;3.60;99.90;;;;;;5050307;28;20420;-43
2022/01/05 01:27:35;;;;;;;7.65;1.73;;;3.60;99.90;;;;;;5049481;28;20025;-44
2022/01/05 01:30:00;;;;;;;6.50;1.70;;;3.50;99.90;;;;;;5050044;28;20470;-43
2022/01/05 01:32:26;;;;;;;2.88;1.33;;;3.50;99.90;;;;;;5049783;28;20104;-43
2022/01/05 01:34:51;;;;;;;5.40;1.50;;;3.50;99.90;;;;;;5049390;28;20040;-43
2022/01/05 01:37:20;;;;;;;8.95;2.00;;;3.50;99.90;;;;;;5050785;28;20025;-42
2022/01/05 01:39:46;;;;;;;9.70;1.95;;;3.50;99.90;;;;;;5049624;28;20043;-43
2022/01/05 01:42:11;;;;;;;4.60;1.80;;;3.50;99.90;;;;;;5049505;28;20013;-44
2022/01/05 01:44:37;;;;;;;4.40;1.67;;;3.60;99.90;;;;;;5049308;28;20055;-43
2022/01/05 01:47:03;;;;;;;7.72;1.45;;;3.70;99.90;;;;;;5050337;28;20365;-44
2022/01/05 01:49:29;;;;;;;8.50;1.88;;;3.70;99.90;;;;;;5048808;28;20033;-44
2022/01/05 01:51:54;;;;;;;5.25;1.80;;;3.60;99.90;;;;;;5049673;28;20037;-43
2022/01/05 01:54:20;;;;;;;6.15;1.52;;;3.60;99.90;;;;;;5049842;28;20036;-45
2022/01/05 01:56:47;;;;;;;7.55;1.73;;;3.60;99.90;;;;;;5048291;28;20029;-43
2022/01/05 01:59:13;;;;;;;6.43;1.42;;;3.60;99.90;;;;;;5050141;28;20033;-43
2022/01/05 02:01:40;;;;;;;6.53;1.98;;;3.60;99.90;;;;;;5049687;28;20033;-43
2022/01/05 02:04:05;;;;;;;5.90;1.80;;;3.50;99.90;;;;;;5048877;28;20654;-43
2022/01/05 02:06:31;;;;;;;7.25;2.08;;;3.50;99.90;;;;;;5048983;28;20112;-42
2022/01/05 02:08:58;;;;;;;12.50;2.30;;;3.50;99.90;;;;;;5049401;28;20415;-43
2022/01/05 02:11:25;;;;;;;9.35;2.63;;;3.50;99.90;;;;;;5048650;28;20034;-42
2022/01/05 02:13:51;;;;;;;6.80;2.13;;;3.50;99.90;;;;;;5049486;28;20029;-43
2022/01/05 02:16:30;;;;;;;7.07;2.05;;;3.50;99.90;;;;;;5049135;28;20029;-43
2022/01/05 02:18:59;;;;;;;12.95;2.33;;;3.50;99.90;;;;;;5049603;28;20056;-43
2022/01/05 02:21:26;;;;;;;9.23;2.00;;;3.40;99.90;;;;;;5048606;28;20381;-43
2022/01/05 02:23:51;;;;;;;8.20;1.98;;;3.40;99.90;;;;;;5048871;28;20032;-42
2022/01/05 02:26:20;;;;;;;9.63;2.17;;;3.40;99.90;;;;;;5049138;28;20025;-43
2022/01/05 02:28:46;;;;;;;10.27;2.03;;;3.40;99.90;;;;;;5037688;28;20658;-42
2022/01/05 02:31:11;;;;;;;11.50;3.72;;;3.40;99.90;;;;;;5048547;28;20032;-42
2022/01/05 02:33:40;;;;;;;13.60;2.65;;;3.40;99.90;;;;;;5048723;28;20019;-43
2022/01/05 02:36:06;;;;;;;10.52;2.17;;;3.40;99.90;;;;;;5048940;28;20028;-43
2022/01/05 02:38:32;;;;;;;7.15;2.25;;;3.40;99.90;;;;;;5048725;28;20025;-44
2022/01/05 02:41:08;;;;;;;9.75;2.15;;;3.40;99.90;;;;;;5048937;28;20033;-43
2022/01/05 02:43:35;;;;;;;5.80;1.80;;;3.40;99.90;;;;;;5048872;28;20493;-42
2022/01/05 02:46:01;;;;;;;9.57;2.25;;;3.40;99.90;;;;;;5048439;28;20052;-42
2022/01/05 02:48:27;;;;;;;12.35;2.17;;;3.40;99.90;;;;;;5048291;28;20114;-43
2022/01/05 02:50:57;;;;;;;8.70;1.88;;;3.40;99.90;;;;;;5048770;28;20179;-42
2022/01/05 02:53:23;;;;;;;6.65;1.98;;;3.40;99.90;;;;;;5047964;28;20029;-42
2022/01/05 02:55:49;;;;;;;10.02;2.58;;;3.40;99.90;;;;;;5048638;28;20037;-45
2022/01/05 02:58:14;;;;;;;9.50;2.00;;;3.40;99.90;;;;;;5048521;28;20661;-43
2022/01/05 03:00:40;;;;;;;8.13;2.15;;;3.40;99.90;;;;;;5047774;28;20033;-43
2022/01/05 03:03:05;;;;;;;8.82;2.08;;;3.40;99.90;;;;;;5048374;28;20114;-44
2022/01/05 03:05:30;;;;;;;8.43;2.03;;;3.40;99.90;;;;;;5047793;28;20033;-43
2022/01/05 03:07:56;;;;;;;6.75;2.10;;;3.40;99.90;;;;;;5048387;28;20025;-42
2022/01/05 03:10:22;;;;;;;7.97;2.30;;;3.40;99.90;;;;;;5048415;28;20108;-45
2022/01/05 03:12:48;;;;;;;6.80;1.58;;;3.40;99.90;;;;;;5047776;28;20523;-42
2022/01/05 03:15:13;;;;;;;6.47;1.90;;;3.40;99.90;;;;;;5048272;28;20053;-43
2022/01/05 03:17:40;;;;;;;8.43;2.20;;;3.30;99.90;;;;;;5047898;28;20449;-43
2022/01/05 03:20:07;;;;;;;7.45;1.90;;;3.30;99.90;;;;;;5047957;28;20033;-44
2022/01/05 03:22:32;;;;;;;9.10;2.10;;;3.30;99.90;;;;;;5047515;28;20031;-44
2022/01/05 03:24:58;;;;;;;10.75;2.30;;;3.30;99.90;;;;;;5047861;28;20017;-44
2022/01/05 03:27:23;;;;;;;8.32;2.35;;;3.30;99.90;;;;;;5047614;28;20492;-43
2022/01/05 03:29:49;;;;;;;7.95;2.15;;;3.30;99.90;;;;;;5047395;28;20029;-43
2022/01/05 03:32:15;;;;;;;12.80;1.92;;;3.30;99.90;;;;;;5048612;28;20061;-42
2022/01/05 03:34:41;;;;;;;10.57;2.17;;;3.30;99.90;;;;;;5046814;28;20021;-44
2022/01/05 03:37:07;;;;;;;10.82;2.17;;;3.30;99.90;;;;;;5047655;28;20036;-43
2022/01/05 03:39:32;;;;;;;8.38;1.80;;;3.30;99.90;;;;;;5047594;28;20017;-44
2022/01/05 03:41:58;;;;;;;12.00;2.28;;;3.30;99.90;;;;;;5047375;28;20452;-43
2022/01/05 03:44:23;;;;;;;9.82;1.92;;;3.30;99.90;;;;;;5047017;28;20063;-42
2022/01/05 03:46:50;;;;;;;11.05;2.58;;;3.30;99.90;;;;;;5047552;28;20028;-43
2022/01/05 03:49:16;;;;;;;9.07;2.75;;;3.30;99.90;;;;;;5047080;28;20512;-43
2022/01/05 03:51:41;;;;;;;13.50;2.67;;;3.30;99.90;;;;;;5047244;28;20236;-44
2022/01/05 03:54:07;;;;;;;9.88;2.70;;;3.30;99.90;;;;;;5047625;28;20021;-43
2022/01/05 03:56:32;;;;;;;11.43;2.30;;;3.30;99.90;;;;;;5046674;28;20017;-43
2022/01/05 03:58:58;;;;;;;10.75;2.28;;;3.30;99.90;;;;;;5047498;28;20476;-43
2022/01/05 04:01:23;;;;;;;10.88;2.45;;;3.30;99.90;;;;;;5047186;28;20025;-43
2022/01/05 04:03:49;;;;;;;11.23;2.42;;;3.30;99.90;;;;;;5046666;28;20075;-43
2022/01/05 04:06:14;;;;;;;8.13;2.40;;;3.30;99.90;;;;;;5047570;28;20040;-45
2022/01/05 04:08:40;;;;;;;9.60;2.00;;;3.30;99.90;;;;;;5047215;28;20036;-43
2022/01/05 04:11:05;;;;;;;11.13;2.28;;;3.30;99.90;;;;;;5046938;28;20033;-44
2022/01/05 04:13:31;;;;;;;12.30;2.28;;;3.30;99.90;;;;;;5047039;28;20025;-43
2022/01/05 04:15:56;;;;;;;12.60;3.85;;;3.30;99.90;;;;;;5046084;28;20021;-43
2022/01/05 04:18:22;;;;;;;8.35;2.40;;;3.30;99.90;;;;;;5047721;28;20025;-43
2022/01/05 04:20:47;;;;;;;9.15;2.00;;;3.30;99.90;;;;;;5046580;28;20024;-42
2022/01/05 04:23:13;;;;;;;14.60;3.42;;;3.30;99.90;;;;;;5046565;28;20043;-44
2022/01/05 04:25:39;;;;;;;11.10;2.58;;;3.30;99.90;;;;;;5047125;28;20021;-42
2022/01/05 04:28:05;;;;;;;9.93;2.67;;;3.20;99.90;;;;;;5046735;28;20017;-43
2022/01/05 04:30:30;;;;;;;13.13;2.78;;;3.20;99.90;;;;;;5045967;28;20097;-42
2022/01/05 04:32:56;;;;;;;6.90;2.90;;;3.30;99.90;;;;;;5047068;28;20108;-41
2022/01/05 04:35:21;;;;;;;11.20;2.22;;;3.30;99.90;;;;;;5046838;28;20025;-43
2022/01/05 04:37:47;;;;;;;12.70;2.45;;;3.30;99.90;;;;;;5045528;28;20103;-43
2022/01/05 04:40:13;;;;;;;16.05;2.78;;;3.30;99.90;;;;;;5047390;28;20021;-42
2022/01/05 04:42:39;;;;;;;7.85;2.35;;;3.30;99.90;;;;;;5046766;28;20025;-43
2022/01/05 04:45:05;;;;;;;10.20;2.50;;;3.30;99.90;;;;;;5045903;28;20571;-43
2022/01/05 04:47:33;;;;;;;7.78;2.08;;;3.50;99.90;;;;;;5046349;28;20021;-43
2022/01/05 04:49:59;;;;;;;13.00;3.22;;;3.50;99.90;;;;;;5046680;28;20102;-44
2022/01/05 04:52:25;;;;;;;9.43;2.17;;;3.60;99.90;;;;;;5045730;28;20041;-43
2022/01/05 04:54:50;;;;;;;16.38;2.80;;;3.60;99.90;;;;;;5047210;28;20037;-43
2022/01/05 04:57:16;;;;;;;10.73;2.47;;;3.70;99.90;;;;;;5049801;28;20035;-42
2022/01/05 04:59:42;;;;;;;14.48;2.53;;;3.80;99.90;;;;;;5050130;28;20025;-44
2022/01/05 05:02:11;;;;;;;11.95;2.55;;;3.80;99.90;;;;;;5051007;28;20028;-43
2022/01/05 05:04:36;;;;;;;7.63;2.40;;;3.80;99.90;;;;;;5050913;28;20036;-42
2022/01/05 05:07:05;;;;;;;12.10;2.75;;;3.80;99.90;;;;;;5049983;28;20021;-43
2022/01/05 05:09:30;;;;;;;11.40;2.50;;;3.80;99.90;;;;;;5050888;28;20128;-43
2022/01/05 05:11:56;;;;;;;12.25;2.53;;;3.80;99.90;;;;;;5049919;28;20128;-44
2022/01/05 05:14:22;;;;;;;8.02;2.40;;;3.80;99.90;;;;;;5050026;28;20475;-44
2022/01/05 05:16:47;;;;;;;9.77;2.00;;;3.80;99.90;;;;;;5050186;28;20537;-42
2022/01/05 05:19:13;;;;;;;10.32;2.85;;;3.80;99.90;;;;;;5049605;28;20131;-45
2022/01/05 05:21:38;;;;;;;10.57;2.80;;;3.70;99.90;;;;;;5050432;28;20115;-42
2022/01/05 05:24:04;;;;;;;6.82;2.72;;;3.80;99.90;;;;;;5050134;28;20017;-43
2022/01/05 05:26:29;;;;;;;13.85;2.75;;;3.80;99.90;;;;;;5049442;28;20078;-43
2022/01/05 05:28:55;;;;;;;13.65;2.50;;;3.90;99.90;;;;;;5050275;28;20049;-42
2022/01/05 05:31:20;;;;;;;12.77;2.70;;;3.90;99.90;;;;;;5050423;28;20471;-42
2022/01/05 05:33:46;;;;;;;7.65;2.63;;;4.00;99.90;;;;;;5048677;28;20079;-43
2022/01/05 05:36:12;;;;;;;13.48;2.58;;;4.00;99.90;;;;;;5050410;28;20025;-43
2022/01/05 05:38:37;;;;;;;12.52;2.70;;;4.00;99.90;;;;;;5050041;28;20078;-43
2022/01/05 05:41:03;;;;;;;12.02;2.63;;;4.00;99.90;;;;;;5049214;28;20025;-43
2022/01/05 05:43:28;;;;;;;9.30;2.90;;;4.00;99.90;;;;;;5049964;28;20020;-42
2022/01/05 05:45:54;;;;;;;12.80;2.55;;;4.10;99.90;;;;;;5050211;28;20082;-44
2022/01/05 05:48:19;;;;;;;16.00;2.80;;;4.10;99.90;;;;;;5049049;28;20065;-44
2022/01/05 05:50:45;;;;;;;11.20;2.65;;;4.10;99.90;;;;;;5049579;28;20033;-43
2022/01/05 05:53:11;;;;;;;10.20;3.15;;;4.10;99.90;;;;;;5048875;28;20099;-42
2022/01/05 05:55:36;;;;;;;11.77;2.97;;;4.20;99.90;;;;;;5047707;28;20021;-42
2022/01/05 05:58:02;;;;;;;16.50;3.33;;;4.20;99.90;;;;;;5048221;28;20494;-43
2022/01/05 06:00:29;;;;;;;13.60;2.47;;;4.20;99.90;;;;;;5048203;28;20111;-41
2022/01/05 06:02:56;;;;;;;12.88;2.53;;;4.30;99.90;;;;;;5047864;28;20032;-43
2022/01/05 06:05:22;;;;;;;14.25;3.45;;;4.30;99.90;;;;;;5048728;28;20025;-41
2022/01/05 06:07:47;;;;;;;13.43;2.78;;;4.30;99.90;;;;;;5047827;28;20031;-44
2022/01/05 06:10:13;;;;;;;13.43;2.72;;;4.40;99.90;;;;;;5047977;28;20121;-43
2022/01/05 06:12:38;;;;;;;19.92;3.08;;;4.40;99.90;;;;;;5048008;28;20416;-43
2022/01/05 06:15:04;;;;;;;17.98;3.97;;;4.40;99.90;;;;;;5048475;28;20024;-42
2022/01/05 06:17:30;;;;;;;14.68;2.78;;;4.40;99.90;;;;;;5047305;28;20032;-43
2022/01/05 06:19:55;;;;;;;14.05;2.72;;;4.50;99.90;;;;;;5048239;28;20033;-43
2022/01/05 06:22:21;;;;;;;12.48;2.78;;;4.50;99.90;;;;;;5047924;28;20017;-44
2022/01/05 06:24:46;;;;;;;11.30;2.70;;;4.50;99.90;;;;;;5047339;28;20598;-43
2022/01/05 06:27:12;;;;;;;10.57;3.13;;;4.50;99.90;;;;;;5048605;28;20111;-43
2022/01/05 06:29:39;;;;;;;10.50;2.92;;;4.60;99.90;;;;;;5046961;28;20045;-43
2022/01/05 06:32:05;;;;;;;14.90;3.20;;;4.60;99.90;;;;;;5047926;28;20392;-43
2022/01/05 06:34:31;;;;;;;13.88;2.80;;;4.60;99.90;;;;;;5048173;28;20040;-44
2022/01/05 06:36:56;;;;;;;10.30;2.50;;;4.60;99.90;;;;;;5046810;28;20024;-43
2022/01/05 06:39:22;;;;;;;7.03;1.98;;;4.60;99.90;;;;;;5047985;28;20035;-43
2022/01/05 06:41:48;;;;;;;9.85;2.70;;;4.70;99.90;;;;;;5047817;28;20036;-44
2022/01/05 06:44:13;;;;;;;10.05;2.38;;;4.70;99.90;;;;;;5047390;28;20033;-44
2022/01/05 06:46:39;;;;;;;15.38;2.55;;;4.70;99.90;;;;;;5047414;28;20024;-43
2022/01/05 06:49:04;;;;;;;15.27;2.50;;;4.70;99.90;;;;;;5047835;28;20037;-43
2022/01/05 06:51:30;;;;;;;14.13;2.90;;;4.70;99.90;;;;;;5012026;28;1007514;-42
2022/01/05 06:53:56;;;;;;;12.85;3.17;;;4.70;99.90;;;;;;5046366;28;20076;-43
2022/01/05 06:56:21;;;;;;;19.38;4.70;;;4.70;99.90;;;;;;5057326;28;20017;-43
2022/01/05 06:58:47;;;;;;;12.68;2.78;;;4.70;99.90;;;;;;5046392;28;20033;-44
2022/01/05 07:01:12;;;;;;;9.45;2.38;;;4.70;99.90;;;;;;5045999;28;20056;-43
2022/01/05 07:03:38;;;;;;;17.45;3.60;;;4.70;99.90;;;;;;5047668;28;20469;-43
2022/01/05 07:06:04;;;;;;;16.25;3.17;;;4.80;99.90;;;;;;5047368;28;20115;-43
2022/01/05 07:08:30;;;;;;;19.45;3.85;;;4.70;99.90;;;;;;5046982;28;20053;-42
2022/01/05 07:10:59;;;;;;;12.02;2.15;;;4.70;99.90;;;;;;5047677;28;20036;-43
2022/01/05 07:13:24;;;;;;;11.65;2.63;;;4.70;99.90;;;;;;5046640;28;20029;-42
2022/01/05 07:15:50;;;;;;;9.63;2.35;;;4.70;99.90;;;;;;5047069;28;20043;-43
2022/01/05 07:18:16;;;;;;;14.68;3.35;;;4.70;99.90;;;;;;5047517;28;20033;-43
2022/01/05 07:20:41;;;;;;;14.55;3.35;;;4.70;99.90;;;;;;5045196;28;20029;-44
2022/01/05 07:23:08;;;;;;;10.52;2.50;;;4.70;99.90;;;;;;5043612;28;20418;-43
2022/01/05 07:25:34;;;;;;;10.57;2.35;;;4.80;99.90;;;;;;5047211;28;20036;-44
2022/01/05 07:28:00;;;;;;;16.50;3.08;;;4.80;99.90;;;;;;5046100;28;20025;-43
2022/01/05 07:30:26;;;;;;;11.45;2.75;;;4.80;99.90;;;;;;5046950;28;20072;-43
2022/01/05 07:32:51;;;;;;;12.73;2.50;;;4.80;99.90;;;;;;5047506;28;20052;-43
2022/01/05 07:35:17;;;;;;;18.38;3.08;;;4.80;99.90;;;;;;5048264;28;20032;-44
2022/01/05 07:37:42;;;;;;;9.25;2.70;;;4.80;99.90;;;;;;5047534;28;20021;-43
2022/01/05 07:40:09;;;;;;;13.57;3.15;;;4.80;99.90;;;;;;5047351;28;20030;-44
2022/01/05 07:42:35;;;;;;;11.07;2.88;;;4.90;99.90;;;;;;5047421;28;20476;-42
2022/01/05 07:45:05;;;;;;;17.10;3.30;;;4.90;99.90;;;;;;5047729;28;20021;-43
2022/01/05 07:47:31;;;;;;;13.73;2.72;;;4.90;99.90;;;;;;5046300;28;20388;-43
2022/01/05 07:49:57;;;;;;;11.68;3.15;;;4.90;99.90;;;;;;5047025;28;20040;-42
2022/01/05 07:52:25;;;;;;;12.35;2.95;;;4.90;99.90;;;;;;5047049;28;20041;-43
2022/01/05 07:54:53;;;;;;;10.98;2.83;;;4.90;99.90;;;;;;5049599;28;20029;-43
2022/01/05 07:57:19;;;;;;;10.75;2.72;;;5.00;99.90;;;;;;5048176;28;20079;-42
2022/01/05 07:59:45;;;;;;;11.48;3.13;;;5.00;99.90;;;;;;5047172;28;20025;-44
2022/01/05 08:02:11;;;;;;;15.02;2.85;;;5.00;99.90;;;;;;5046298;28;20112;-42
2022/01/05 08:04:36;;;;;;;11.00;2.55;;;5.00;99.90;;;;;;5047545;28;20035;-44
2022/01/05 08:07:05;;;;;;;11.75;2.80;;;5.10;99.90;;;;;;5047199;28;20402;-44
2022/01/05 08:09:30;;;;;;;13.02;3.47;;;5.10;99.90;;;;;;5045865;28;20037;-43
2022/01/05 08:11:57;;;;;;;8.65;2.70;;;5.10;99.90;;;;;;5047293;28;20051;-42
2022/01/05 08:14:23;;;;;;;17.42;2.85;;;5.10;99.90;;;;;;5046962;28;20449;-43
2022/01/05 08:16:48;;;;;;;15.70;2.80;;;5.10;99.90;;;;;;5046665;28;20056;-41
2022/01/05 08:19:14;;;;;;;14.57;2.60;;;5.20;99.90;;;;;;5047020;28;20024;-43
2022/01/05 08:21:39;;;;;;;12.80;3.17;;;5.10;99.90;;;;;;5047121;28;20465;-43
2022/01/05 08:24:05;;;;;;;10.57;2.80;;;5.10;99.90;;;;;;5045328;28;20520;-42
2022/01/05 08:26:31;;;;;;;21.35;3.35;;;5.10;99.90;;;;;;5046631;28;20384;-42
2022/01/05 08:28:56;;;;;;;15.80;3.17;;;5.10;99.90;;;;;;5045648;28;20123;-43
2022/01/05 08:31:22;;;;;;;17.33;3.45;;;5.10;99.90;;;;;;5047303;28;20071;-44
2022/01/05 08:33:48;;;;;;;15.38;3.20;;;5.10;99.90;;;;;;5046420;28;20374;-43
2022/01/05 08:36:13;;;;;;;15.57;3.33;;;5.00;99.90;;;;;;5046603;28;20062;-43
2022/01/05 08:38:39;;;;;;;16.50;3.40;;;5.00;99.90;;;;;;5046042;28;20043;-43
2022/01/05 08:41:05;;;;;;;16.67;3.13;;;5.10;99.90;;;;;;5046801;28;20025;-43
2022/01/05 08:43:32;;;;;;;15.18;3.10;;;5.00;99.90;;;;;;5046210;28;20017;-46
2022/01/05 08:45:57;;;;;;;21.02;3.60;;;5.00;99.90;;;;;;5046409;28;20113;-42
2022/01/05 08:48:23;;;;;;;18.45;3.60;;;5.00;99.90;;;;;;5045968;28;20466;-44
2022/01/05 08:50:49;;;;;;;21.77;4.65;;;5.00;99.90;;;;;;5044623;28;20045;-43
2022/01/05 08:53:15;;;;;;;16.63;3.63;;;5.00;99.90;;;;;;5047050;28;20039;-42
2022/01/05 08:55:43;;;;;;;14.48;3.63;;;5.10;99.90;;;;;;5045962;28;20025;-43
2022/01/05 08:58:11;;;;;;;12.77;3.13;;;5.00;99.90;;;;;;5045889;28;20369;-43
2022/01/05 09:00:37;;;;;;;18.05;3.10;;;5.00;99.90;;;;;;5046085;28;20112;-43
2022/01/05 09:03:03;;;;;;;12.25;2.80;;;5.00;99.90;;;;;;5046425;28;20421;-43
2022/01/05 09:05:30;;;;;;;15.55;3.10;;;5.00;99.90;;;;;;5045922;28;20025;-42
2022/01/05 09:07:55;;;;;;;11.93;3.10;;;4.90;99.90;;;;;;5046130;28;20445;-43
2022/01/05 09:10:21;;;;;;;19.33;3.67;;;4.90;99.90;;;;;;5046041;28;20037;-43
2022/01/05 09:12:47;;;;;;;18.58;3.60;;;4.90;99.90;;;;;;5045856;28;20594;-43
2022/01/05 09:15:12;;;;;;;18.17;3.97;;;4.90;99.90;;;;;;5045968;28;20040;-43
2022/01/05 09:17:38;;;;;;;18.33;4.07;;;4.90;99.90;;;;;;5046338;28;20033;-42
2022/01/05 09:20:05;;;;;;;19.35;4.57;;;4.90;99.90;;;;;;5045586;28;20041;-42
2022/01/05 09:22:31;;;;;;;21.10;3.03;;;4.90;99.90;;;;;;5045729;28;20021;-43
2022/01/05 09:24:56;;;;;;;16.13;3.63;;;4.90;99.90;;;;;;5046315;28;20025;-42
2022/01/05 09:27:22;;;;;;;12.45;3.10;;;4.90;99.90;;;;;;5045727;28;20439;-42
2022/01/05 09:29:48;;;;;;;21.63;3.78;;;4.90;99.90;;;;;;5044065;28;20033;-42
2022/01/05 09:32:13;;;;;;;13.65;3.30;;;4.90;99.90;;;;;;5045731;28;20360;-42
2022/01/05 09:34:41;;;;;;;19.20;3.92;;;4.90;99.90;;;;;;5046524;28;20029;-43
2022/01/05 09:37:09;;;;;;;17.25;3.55;;;5.00;99.90;;;;;;5045581;28;20033;-42
2022/01/05 09:42:19;;;;;;;13.95;3.28;;;5.00;99.90;;;;;;5047813;28;20063;-43
2022/01/05 09:44:48;;;;;;;14.82;3.45;;;5.00;99.90;;;;;;5050017;28;20711;-43
2022/01/05 09:47:31;;;;;;;14.85;3.17;;;5.00;99.90;;;;;;5049042;28;20025;-46
2022/01/05 09:50:03;;;;;;;13.27;3.55;;;5.10;99.90;;;;;;5030060;28;20087;-44
2022/01/05 09:52:31;;;;;;;17.25;2.95;;;5.10;99.90;;;;;;5045353;28;20127;-44
2022/01/05 09:55:01;;;;;;;12.57;2.92;;;5.20;99.90;;;;;;5029076;28;20481;-43
2022/01/05 09:57:28;;;;;;;13.80;2.75;;;5.10;99.90;;;;;;5044218;28;20439;-43
2022/01/05 09:59:56;;;;;;;18.15;3.58;;;5.10;99.90;;;;;;5049358;28;20392;-42
2022/01/05 10:02:22;;;;;;;14.05;2.90;;;5.10;99.90;;;;;;5048705;28;20029;-43
2022/01/05 10:04:48;;;;;;;16.48;3.60;;;5.10;99.90;;;;;;5049580;28;20075;-43
2022/01/05 10:07:15;;;;;;;14.88;2.75;;;5.10;99.90;;;;;;5049655;28;20136;-44
2022/01/05 10:09:43;;;;;;;15.10;3.58;;;5.10;99.90;;;;;;5048673;28;20029;-43
2022/01/05 10:12:10;;;;;;;15.10;3.78;;;5.20;99.90;;;;;;5049258;28;20025;-42
2022/01/05 10:14:44;;;;;;;17.90;3.25;;;5.20;99.90;;;;;;5048378;28;20594;-43
2022/01/05 10:17:12;;;;;;;20.00;4.18;;;5.20;99.90;;;;;;5048429;28;20106;-43
2022/01/05 10:19:39;;;;;;;16.23;2.95;;;5.20;99.90;;;;;;5049418;28;20396;-42
2022/01/05 10:22:34;;;;;;;14.65;3.67;;;5.20;99.90;;;;;;5048089;28;20833;-43
2022/01/05 10:25:06;;;;;;;17.27;3.58;;;5.20;99.90;;;;;;5041088;28;20021;-43
2022/01/05 10:27:32;;;;;;;21.33;3.47;;;5.30;99.90;;;;;;5048754;28;20039;-43
2022/01/05 10:30:04;;;;;;;21.15;3.40;;;5.30;99.90;;;;;;5048345;28;20141;-43
2022/01/05 10:32:32;;;;;;;15.50;3.17;;;5.40;99.90;;;;;;5048611;28;20552;-44
2022/01/05 10:35:20;;;;;;;20.02;4.13;;;5.40;99.90;;;;;;5037887;28;20021;-43
2022/01/05 10:37:59;;;;;;;20.00;4.28;;;5.40;99.90;;;;;;5047581;28;20124;-43
2022/01/05 10:40:25;;;;;;;23.27;4.38;;;5.50;99.90;;;;;;5048872;28;20025;-43
2022/01/05 10:42:56;;;;;;;14.85;3.75;;;5.50;99.90;;;;;;5048085;28;20655;-43
2022/01/05 10:45:37;;;;;;;15.88;4.22;;;5.60;99.90;;;;;;5038704;28;20074;-43
2022/01/05 10:48:13;;;;;;;20.05;3.20;;;5.60;99.90;;;;;;5048617;28;20033;-43
2022/01/05 10:50:39;;;;;;;18.60;3.28;;;5.60;99.90;;;;;;5038191;28;20037;-43
2022/01/05 10:53:05;;;;;;;18.13;4.55;;;5.60;99.90;;;;;;5047554;28;20075;-43
2022/01/05 10:55:35;;;;;;;20.42;3.30;;;5.60;99.90;;;;;;5048007;28;20063;-42
2022/01/05 10:58:17;;;;;;;13.90;2.83;;;5.60;99.90;;;;;;5048114;28;20032;-43
2022/01/05 11:00:52;;;;;;;24.15;4.28;;;5.70;99.90;;;;;;5048540;28;20109;-42
2022/01/05 11:03:37;;;;;;;16.30;3.35;;;5.80;99.90;;;;;;5048516;28;20020;-42
2022/01/05 11:06:13;;;;;;;18.88;3.65;;;5.80;99.90;;;;;;5036971;28;20037;-44
2022/01/05 11:09:05;;;;;;;23.52;4.57;;;5.90;99.90;;;;;;5048286;28;20029;-42
2022/01/05 11:11:43;;;;;;;21.95;3.75;;;5.90;99.90;;;;;;5038805;28;20059;-43
2022/01/05 11:14:17;;;;;;;17.92;3.95;;;5.90;99.90;;;;;;5048231;28;20013;-42
2022/01/05 11:16:48;;;;;;;23.33;3.13;;;5.90;99.90;;;;;;5048022;28;20033;-42
2022/01/05 11:19:17;;;;;;;13.77;2.88;;;5.90;99.90;;;;;;5048085;28;20024;-43
2022/01/05 11:22:10;;;;;;;16.10;4.07;;;5.90;99.90;;;;;;5047890;28;20037;-44
2022/01/05 11:24:51;;;;;;;18.05;4.57;;;5.90;99.90;;;;;;5047779;28;20116;-44
2022/01/05 11:27:24;;;;;;;17.05;3.25;;;5.80;99.90;;;;;;5048342;28;20051;-42
2022/01/05 11:29:51;;;;;;;15.73;3.20;;;5.90;99.90;;;;;;5047124;28;20075;-44
2022/01/05 11:32:20;;;;;;;15.57;2.60;;;5.90;99.90;;;;;;5047549;28;20021;-43
2022/01/05 11:34:47;;;;;;;16.65;3.38;;;5.90;99.90;;;;;;5047514;28;20451;-42
2022/01/05 11:37:13;;;;;;;12.50;2.92;;;5.90;99.90;;;;;;5048184;28;20055;-42
2022/01/05 11:39:44;;;;;;;14.00;3.05;;;5.90;99.90;;;;;;5046310;28;20068;-42
2022/01/05 11:42:14;;;;;;;14.73;2.60;;;5.90;99.90;;;;;;5047098;28;20131;-43
2022/01/05 11:44:45;;;;;;;12.60;2.38;;;5.90;99.90;;;;;;5047551;28;20021;-42
2022/01/05 11:47:31;;;;;;;12.18;2.53;;;5.90;99.90;;;;;;5047392;28;20021;-42
2022/01/05 11:50:14;;;;;;;12.45;2.70;;;5.90;99.90;;;;;;5047044;28;20036;-42
2022/01/05 11:52:59;;;;;;;13.05;2.50;;;5.90;99.90;;;;;;5036763;28;20135;-42
2022/01/05 11:55:26;;;;;;;14.15;2.47;;;5.90;99.90;;;;;;5047339;28;20048;-43
2022/01/05 11:58:12;;;;;;;11.20;2.70;;;6.00;99.90;;;;;;5047361;28;20491;-43
2022/01/05 12:00:37;;;;;;;9.52;2.28;;;6.10;99.90;;;;;;5046564;28;20060;-43
2022/01/05 12:03:03;;;;;;;15.40;2.60;;;6.10;99.90;;;;;;5047227;28;20448;-42
2022/01/05 12:06:07;;;;;;;11.30;2.38;;;6.10;99.90;;;;;;5046627;28;20646;-43
2022/01/05 12:08:56;;;;;;;13.30;2.88;;;6.10;99.90;;;;;;5039384;28;20024;-43
2022/01/05 12:11:33;;;;;;;13.02;2.50;;;6.20;99.90;;;;;;5046990;28;20040;-43
2022/01/05 12:14:04;;;;;;;10.60;2.53;;;6.20;99.90;;;;;;5047094;28;20032;-42
2022/01/05 12:16:59;;;;;;;21.05;3.78;;;6.20;99.90;;;;;;5046711;28;20461;-42
2022/01/05 12:19:28;;;;;;;15.98;2.85;;;6.20;99.90;;;;;;5046390;28;20562;-43
2022/01/05 12:21:55;;;;;;;22.67;4.38;;;6.20;99.90;;;;;;5046000;28;20021;-42
2022/01/05 12:24:21;;;;;;;16.92;3.53;;;6.20;99.90;;;;;;5047111;28;20381;-41
2022/01/05 12:27:23;;;;;;;17.65;3.35;;;6.30;99.90;;;;;;5046485;28;20368;-43
2022/01/05 12:29:49;;;;;;;14.82;3.22;;;6.30;99.90;;;;;;5046065;28;20102;-42
2022/01/05 12:32:37;;;;;;;17.27;3.03;;;6.30;99.90;;;;;;5046763;28;20070;-43
2022/01/05 12:35:08;;;;;;;19.98;3.70;;;6.30;99.90;;;;;;5046710;28;20484;-43
2022/01/05 12:37:37;;;;;;;20.40;2.85;;;6.30;99.90;;;;;;5046630;28;20527;-43
2022/01/05 12:40:24;;;;;;;17.52;3.40;;;6.40;99.90;;;;;;5047029;28;20037;-42
2022/01/05 12:43:09;;;;;;;19.13;3.42;;;6.40;99.90;;;;;;5045329;28;20496;-44
2022/01/05 12:45:53;;;;;;;15.32;3.65;;;6.40;99.90;;;;;;5046606;28;20057;-43
2022/01/05 12:48:30;;;;;;;20.45;4.18;;;6.40;99.90;;;;;;5046831;28;20055;-41
2022/01/05 12:51:11;;;;;;;21.73;3.30;;;6.40;99.90;;;;;;5026487;28;20057;-43
2022/01/05 12:53:48;;;;;;;17.83;2.72;;;6.40;99.90;;;;;;5043589;28;20037;-42
2022/01/05 12:56:26;;;;;;;14.40;2.83;;;6.50;99.90;;;;;;5046177;28;20028;-43
2022/01/05 12:58:52;;;;;;;19.63;3.63;;;6.50;99.90;;;;;;5046797;28;20037;-43